createdAt,value
2019-01-16T00:02:40.289Z,71.60
2019-01-16T00:05:49.694Z,71.40
2019-01-16T00:08:57.626Z,71.70
2019-01-16T00:12:19.251Z,71.40
2019-01-16T00:15:43.587Z,71.50
2019-01-16T00:18:55.817Z,70.80
2019-01-16T00:22:18.583Z,70.80
2019-01-16T00:25:37.045Z,70.90
2019-01-16T00:28:43.620Z,71.30
2019-01-16T00:31:50.186Z,70.50
2019-01-16T00:34:56.965Z,71.70
2019-01-16T00:38:09.397Z,70.70
2019-01-16T00:41:24.982Z,70.50
2019-01-16T00:44:34.161Z,70.40
2019-01-16T00:47:56.590Z,71.20
2019-01-16T00:51:18.957Z,70.90
2019-01-16T00:54:25.426Z,70.50
2019-01-16T00:57:34.362Z,70.20
2019-01-16T01:00:43.759Z,70.10
2019-01-16T01:03:53.023Z,70.50
2019-01-16T01:07:15.818Z,70.30
2019-01-16T01:10:24.984Z,70.30
2019-01-16T01:13:37.553Z,70.30
2019-01-16T01:16:59.148Z,70.80
2019-01-16T01:20:08.203Z,70.60
2019-01-16T01:23:32.006Z,71.00
2019-01-16T01:26:44.473Z,71.30
2019-01-16T01:30:06.090Z,71.10
2019-01-16T01:33:28.517Z,71.50
2019-01-16T01:36:46.718Z,71.70
2019-01-16T01:40:04.905Z,71.40
2019-01-16T01:43:14.106Z,71.20
2019-01-16T01:46:23.662Z,71.50
2019-01-16T01:49:42.177Z,71.50
2019-01-16T01:53:06.445Z,71.40
2019-01-16T01:56:15.820Z,71.30
2019-01-16T01:59:30.823Z,70.70
2019-01-16T02:02:40.325Z,70.80
2019-01-16T02:05:49.514Z,70.70
2019-01-16T02:08:56.005Z,70.90
2019-01-16T02:12:21.710Z,71.60
2019-01-16T02:15:28.154Z,71.10
2019-01-16T02:18:47.174Z,70.80
2019-01-16T02:21:48.455Z,70.90
2019-01-16T02:25:01.010Z,70.80
2019-01-16T02:28:13.150Z,70.90
2019-01-16T02:31:19.599Z,70.90
2019-01-16T02:34:37.980Z,71.20
2019-01-16T02:37:44.438Z,70.40
2019-01-16T02:40:56.331Z,70.80
2019-01-16T02:44:02.823Z,71.00
2019-01-16T02:47:12.269Z,71.20
2019-01-16T02:50:21.645Z,71.50
2019-01-16T02:53:44.145Z,71.70
2019-01-16T02:56:56.372Z,72.70
2019-01-16T03:00:11.668Z,72.60
2019-01-16T03:03:19.164Z,72.20
2019-01-16T03:06:25.663Z,72.10
2019-01-16T03:09:34.882Z,72.40
2019-01-16T03:12:59.379Z,73.10
2019-01-16T03:16:17.906Z,72.50
2019-01-16T03:19:40.813Z,74.00
2019-01-16T03:22:50.177Z,74.10
2019-01-16T03:26:05.083Z,73.90
2019-01-16T03:29:14.576Z,73.90
2019-01-16T03:32:24.048Z,75.10
2019-01-16T03:35:36.578Z,75.10
2019-01-16T03:38:59.006Z,75.70
2019-01-16T03:42:08.226Z,75.30
2019-01-16T03:45:14.706Z,75.60
2019-01-16T03:48:27.167Z,75.00
2019-01-16T03:51:33.623Z,75.00
2019-01-16T03:54:56.415Z,75.40
2019-01-16T03:58:05.610Z,75.30
2019-01-16T04:01:28.306Z,75.50
2019-01-16T04:04:46.379Z,74.20
2019-01-16T04:07:52.892Z,74.70
2019-01-16T04:10:59.389Z,74.50
2019-01-16T04:14:09.999Z,73.80
2019-01-16T04:17:16.461Z,74.00
2019-01-16T04:20:22.961Z,73.10
2019-01-16T04:23:35.163Z,73.60
2019-01-16T04:26:41.699Z,73.60
2019-01-16T04:29:54.151Z,73.50
2019-01-16T04:33:00.651Z,72.70
2019-01-16T04:36:16.045Z,72.80
2019-01-16T04:39:22.624Z,72.80
2019-01-16T04:42:35.030Z,72.20
2019-01-16T04:45:41.481Z,71.70
2019-01-16T04:48:50.791Z,71.30
2019-01-16T04:52:06.103Z,71.10
2019-01-16T04:55:13.550Z,71.80
2019-01-16T04:58:22.685Z,71.20
2019-01-16T05:01:34.819Z,71.20
2019-01-16T05:04:56.187Z,70.80
2019-01-16T05:08:02.635Z,70.30
2019-01-16T05:11:25.068Z,70.40
2019-01-16T05:14:34.230Z,70.30
2019-01-16T05:17:46.461Z,69.60
2019-01-16T05:21:08.942Z,70.40
2019-01-16T05:24:30.230Z,70.00
2019-01-16T05:27:52.633Z,70.20
2019-01-16T05:31:15.321Z,69.60
2019-01-16T05:34:27.732Z,69.20
2019-01-16T05:37:46.258Z,68.80
2019-01-16T05:40:55.658Z,68.60
2019-01-16T05:44:12.184Z,67.60
2019-01-16T05:47:19.796Z,66.60
2019-01-16T05:50:29.197Z,67.10
2019-01-16T05:53:35.704Z,65.70
2019-01-16T05:56:58.485Z,65.70
2019-01-16T06:00:06.427Z,65.10
2019-01-16T06:03:21.894Z,64.70
2019-01-16T06:06:28.378Z,64.50
2019-01-16T06:09:50.846Z,64.70
2019-01-16T06:13:06.410Z,65.10
2019-01-16T06:16:15.580Z,65.00
2019-01-16T06:19:22.037Z,64.70
2019-01-16T06:22:43.308Z,65.00
2019-01-16T06:26:05.801Z,64.20
2019-01-16T06:29:28.311Z,64.00
2019-01-16T06:32:37.872Z,64.60
2019-01-16T06:35:47.318Z,64.20
2019-01-16T06:38:53.866Z,64.10
2019-01-16T06:42:02.744Z,64.70
2019-01-16T06:45:09.219Z,65.00
2019-01-16T06:48:15.682Z,65.10
2019-01-16T06:51:27.928Z,66.10
2019-01-16T06:54:50.442Z,65.20
2019-01-16T06:58:08.730Z,65.30
2019-01-16T07:01:17.897Z,65.80
2019-01-16T07:04:24.513Z,65.80
2019-01-16T07:07:36.506Z,66.50
2019-01-16T07:10:45.439Z,66.20
2019-01-16T07:13:57.850Z,66.80
2019-01-16T07:17:04.304Z,66.50
2019-01-16T07:20:10.872Z,66.80
2019-01-16T07:23:23.132Z,67.20
2019-01-16T07:26:29.595Z,67.10
2019-01-16T07:29:54.203Z,67.10
2019-01-16T07:33:00.886Z,67.10
2019-01-16T07:36:19.126Z,67.10
2019-01-16T07:39:34.411Z,67.40
2019-01-16T07:42:58.715Z,66.40
2019-01-16T07:46:07.814Z,65.80
2019-01-16T07:49:30.459Z,66.80
2019-01-16T07:52:39.900Z,66.60
2019-01-16T07:55:58.406Z,67.20
2019-01-16T07:59:21.952Z,66.70
2019-01-16T08:02:43.446Z,66.90
2019-01-16T08:05:49.910Z,66.80
2019-01-16T08:09:08.141Z,66.50
2019-01-16T08:12:23.445Z,67.10
2019-01-16T08:15:45.894Z,67.00
2019-01-16T08:19:08.372Z,67.20
2019-01-16T08:22:17.512Z,66.50
2019-01-16T08:25:26.640Z,67.60
2019-01-16T08:28:42.049Z,66.70
2019-01-16T08:32:06.494Z,66.60
2019-01-16T08:35:21.741Z,66.80
2019-01-16T08:38:44.155Z,66.80
2019-01-16T08:41:50.671Z,65.60
2019-01-16T08:44:57.129Z,65.90
2019-01-16T08:48:19.591Z,66.00
2019-01-16T08:51:26.088Z,65.30
2019-01-16T08:54:32.564Z,65.80
2019-01-16T08:57:54.202Z,65.40
2019-01-16T09:01:09.631Z,65.30
2019-01-16T09:04:32.438Z,65.10
2019-01-16T09:07:53.962Z,65.40
2019-01-16T09:11:16.530Z,65.60
2019-01-16T09:14:31.706Z,65.40
2019-01-16T09:17:38.173Z,65.40
2019-01-16T09:20:47.378Z,65.70
2019-01-16T09:24:06.778Z,65.80
2019-01-16T09:27:15.925Z,65.80
2019-01-16T09:30:38.569Z,66.20
2019-01-16T09:33:54.145Z,66.40
2019-01-16T09:37:00.602Z,66.40
2019-01-16T09:40:13.077Z,66.30
2019-01-16T09:43:19.561Z,66.10
2019-01-16T09:46:26.050Z,66.60
2019-01-16T09:49:32.504Z,66.50
2019-01-16T09:52:50.747Z,67.00
2019-01-16T09:56:12.080Z,66.90
2019-01-16T09:59:18.631Z,65.90
2019-01-16T10:02:43.064Z,66.00
2019-01-16T10:05:49.543Z,66.20
2019-01-16T10:08:56.011Z,66.90
2019-01-16T10:12:02.502Z,67.60
2019-01-16T10:15:17.614Z,67.00
2019-01-16T10:18:26.770Z,67.40
2019-01-16T10:21:34.024Z,66.10
2019-01-16T10:24:41.450Z,66.80
2019-01-16T10:28:02.681Z,66.20
2019-01-16T10:31:11.619Z,66.40
2019-01-16T10:34:21.031Z,66.20
2019-01-16T10:37:30.246Z,66.10
2019-01-16T10:40:48.506Z,65.40
2019-01-16T10:44:11.257Z,64.80
2019-01-16T10:47:32.597Z,65.50
2019-01-16T10:50:48.092Z,66.30
2019-01-16T10:54:10.589Z,66.60
2019-01-16T10:57:35.142Z,65.70
2019-01-16T11:00:41.640Z,65.60
2019-01-16T11:03:50.802Z,65.40
2019-01-16T11:06:57.295Z,65.30
2019-01-16T11:10:19.868Z,64.40
2019-01-16T11:13:42.613Z,64.20
2019-01-16T11:16:56.652Z,65.10
2019-01-16T11:20:00.259Z,64.70
2019-01-16T11:23:21.910Z,64.10
2019-01-16T11:26:34.187Z,63.60
2019-01-16T11:29:52.366Z,64.20
2019-01-16T11:32:58.882Z,63.90
2019-01-16T11:36:14.449Z,64.20
2019-01-16T11:39:38.827Z,64.10
2019-01-16T11:42:45.327Z,63.50
2019-01-16T11:46:15.090Z,63.50
2019-01-16T11:49:27.235Z,63.40
2019-01-16T11:52:33.692Z,62.80
2019-01-16T11:55:40.171Z,61.60
2019-01-16T11:58:46.667Z,62.30
2019-01-16T12:02:05.121Z,61.40
2019-01-16T12:05:15.461Z,62.10
2019-01-16T12:08:27.602Z,61.70
2019-01-16T12:11:42.681Z,61.90
2019-01-16T12:14:51.534Z,61.50
2019-01-16T12:18:09.980Z,60.90
2019-01-16T12:21:16.519Z,61.00
2019-01-16T12:24:28.733Z,60.90
2019-01-16T12:27:35.210Z,61.10
2019-01-16T12:30:47.335Z,61.40
2019-01-16T12:33:53.781Z,60.50
2019-01-16T12:37:00.266Z,60.80
2019-01-16T12:40:21.234Z,60.40
2019-01-16T12:43:30.442Z,60.40
2019-01-16T12:46:52.988Z,60.30
2019-01-16T12:49:59.473Z,61.10
2019-01-16T12:53:08.970Z,60.80
2019-01-16T12:56:18.380Z,60.50
2019-01-16T12:59:39.805Z,60.30
2019-01-16T13:03:01.145Z,61.20
2019-01-16T13:09:36.878Z,60.70
2019-01-16T13:12:43.414Z,60.10
2019-01-16T13:15:55.626Z,60.80
2019-01-16T13:19:02.077Z,59.80
2019-01-16T13:22:11.589Z,60.90
2019-01-16T13:25:29.894Z,60.90
2019-01-16T13:28:52.591Z,60.00
2019-01-16T13:32:08.125Z,60.20
2019-01-16T13:35:17.270Z,60.00
2019-01-16T13:38:23.781Z,60.90
2019-01-16T13:41:30.238Z,59.80
2019-01-16T13:44:36.730Z,60.50
2019-01-16T13:47:59.224Z,60.30
2019-01-16T13:51:14.462Z,61.10
2019-01-16T13:54:33.012Z,60.90
2019-01-16T13:57:39.499Z,60.90
2019-01-16T14:00:48.921Z,61.00
2019-01-16T14:03:55.442Z,61.80
2019-01-16T14:07:10.674Z,61.00
2019-01-16T14:10:33.062Z,61.30
2019-01-16T14:13:48.621Z,61.60
2019-01-16T14:16:57.513Z,61.80
2019-01-16T14:20:06.721Z,61.80
2019-01-16T14:23:24.710Z,61.90
2019-01-16T14:26:36.912Z,62.00
2019-01-16T14:29:52.302Z,61.30
2019-01-16T14:33:15.221Z,61.70
2019-01-16T14:36:22.873Z,61.80
2019-01-16T14:39:45.467Z,61.80
2019-01-16T14:43:00.737Z,62.00
2019-01-16T14:46:22.045Z,61.60
2019-01-16T14:49:40.371Z,62.20
2019-01-16T14:52:49.893Z,62.20
2019-01-16T14:55:59.128Z,62.20
2019-01-16T14:59:05.681Z,62.00
2019-01-16T15:02:12.334Z,61.90
2019-01-16T15:05:27.214Z,61.90
2019-01-16T15:08:48.752Z,61.00
2019-01-16T15:12:00.779Z,61.90
2019-01-16T15:15:17.787Z,62.20
2019-01-16T15:18:42.086Z,62.30
2019-01-16T15:22:06.419Z,61.70
2019-01-16T15:25:25.076Z,61.60
2019-01-16T15:28:37.231Z,61.80
2019-01-16T15:31:52.255Z,61.80
2019-01-16T15:34:58.701Z,61.20
2019-01-16T15:38:08.284Z,61.10
2019-01-16T15:41:15.014Z,61.20
2019-01-16T15:44:27.275Z,60.40
2019-01-16T15:47:33.779Z,60.60
2019-01-16T15:50:45.978Z,60.50
2019-01-16T15:54:07.314Z,61.60
2019-01-16T15:57:16.593Z,60.80
2019-01-16T16:00:23.778Z,60.90
2019-01-16T16:03:36.017Z,61.10
2019-01-16T16:06:45.320Z,60.40
2019-01-16T16:09:54.766Z,60.80
2019-01-16T16:13:08.134Z,60.30
2019-01-16T16:16:14.602Z,60.00
2019-01-16T16:19:21.118Z,60.10
2019-01-16T16:22:27.603Z,60.10
2019-01-16T16:25:37.105Z,60.10
2019-01-16T16:28:58.350Z,60.50
2019-01-16T16:32:10.511Z,60.70
2019-01-16T16:35:25.826Z,59.90
2019-01-16T16:38:40.966Z,59.30
2019-01-16T16:41:50.422Z,59.80
2019-01-16T16:45:15.031Z,59.30
2019-01-16T16:48:36.297Z,59.00
2019-01-16T16:51:42.780Z,58.60
2019-01-16T16:55:04.215Z,58.80
2019-01-16T16:58:10.757Z,58.80
2019-01-16T17:01:26.008Z,58.90
2019-01-16T17:04:35.269Z,58.10
2019-01-16T17:07:44.704Z,58.70
2019-01-16T17:10:54.215Z,58.20
2019-01-16T17:14:03.577Z,58.90
2019-01-16T17:17:10.113Z,58.80
2019-01-16T17:20:32.653Z,58.30
2019-01-16T17:23:44.899Z,57.70
2019-01-16T17:26:57.121Z,58.10
2019-01-16T17:30:09.650Z,57.70
2019-01-16T17:33:16.129Z,57.50
2019-01-16T17:36:25.300Z,58.00
2019-01-16T17:39:40.706Z,57.20
2019-01-16T17:42:53.026Z,57.40
2019-01-16T17:46:15.849Z,57.20
2019-01-16T17:49:22.385Z,57.30
2019-01-16T17:52:43.554Z,56.40
2019-01-16T17:55:55.822Z,56.80
2019-01-16T17:59:18.335Z,56.20
2019-01-16T18:02:27.468Z,56.30
2019-01-16T18:05:33.964Z,55.50
2019-01-16T18:08:56.424Z,55.50
2019-01-16T18:12:05.802Z,55.40
2019-01-16T18:15:15.372Z,55.90
2019-01-16T18:18:27.748Z,55.40
2019-01-16T18:21:34.234Z,55.70
2019-01-16T18:24:44.619Z,55.00
2019-01-16T18:28:05.858Z,55.10
2019-01-16T18:31:12.362Z,55.60
2019-01-16T18:34:18.830Z,55.50
2019-01-16T18:37:40.336Z,55.50
2019-01-16T18:40:46.810Z,54.30
2019-01-16T18:44:09.578Z,55.10
2019-01-16T18:47:16.046Z,54.10
2019-01-16T18:50:31.870Z,54.60
2019-01-16T18:53:47.454Z,54.40
2019-01-16T18:56:53.923Z,54.10
2019-01-16T19:00:03.170Z,53.80
2019-01-16T19:03:09.622Z,53.90
2019-01-16T19:06:24.816Z,53.50
2019-01-16T19:09:32.178Z,53.80
2019-01-16T19:12:38.630Z,53.60
2019-01-16T19:16:01.095Z,52.90
2019-01-16T19:19:23.970Z,52.90
2019-01-16T19:22:30.455Z,52.40
2019-01-16T19:25:37.006Z,53.10
2019-01-16T19:28:59.934Z,53.30
2019-01-16T19:32:24.344Z,52.60
2019-01-16T19:35:30.806Z,53.30
2019-01-16T19:38:52.389Z,53.10
2019-01-16T19:42:04.761Z,52.90
2019-01-16T19:45:21.547Z,53.20
2019-01-16T19:48:39.601Z,52.30
2019-01-16T19:51:48.506Z,52.80
2019-01-16T19:54:57.651Z,52.10
2019-01-16T19:58:07.122Z,52.00
2019-01-16T20:01:29.727Z,52.20
2019-01-16T20:04:54.284Z,52.60
2019-01-16T20:08:03.198Z,52.50
2019-01-16T20:11:12.626Z,52.40
2019-01-16T20:14:21.716Z,52.50
2019-01-16T20:17:39.815Z,53.20
2019-01-16T20:20:56.056Z,52.30
2019-01-16T20:24:18.637Z,51.60
2019-01-16T20:27:30.990Z,51.40
2019-01-16T20:30:43.392Z,51.70
2019-01-16T20:34:05.925Z,52.30
2019-01-16T20:37:12.429Z,51.90
2019-01-16T20:40:21.349Z,51.80
2019-01-16T20:43:45.906Z,51.90
2019-01-16T20:46:55.298Z,52.10
2019-01-16T20:50:01.779Z,51.50
2019-01-16T20:53:11.027Z,52.90
2019-01-16T20:56:23.233Z,52.50
2019-01-16T20:59:32.421Z,52.80
2019-01-16T21:02:54.917Z,52.80
2019-01-16T21:06:02.274Z,52.80
2019-01-16T21:09:24.002Z,52.00
2019-01-16T21:12:36.298Z,53.00
2019-01-16T21:15:42.759Z,53.00
2019-01-16T21:18:52.133Z,52.80
2019-01-16T21:22:01.305Z,53.00
2019-01-16T21:25:18.305Z,53.50
2019-01-16T21:28:31.460Z,53.50
2019-01-16T21:31:53.767Z,53.70
2019-01-16T21:35:03.185Z,53.70
2019-01-16T21:38:12.458Z,54.40
2019-01-16T21:41:25.418Z,54.00
2019-01-16T21:44:31.918Z,54.50
2019-01-16T21:47:38.378Z,54.80
2019-01-16T21:50:53.580Z,55.70
2019-01-16T21:54:00.052Z,55.20
2019-01-16T21:57:22.794Z,55.10
2019-01-16T22:00:31.945Z,55.90
2019-01-16T22:03:38.428Z,56.20
2019-01-16T22:06:44.902Z,56.30
2019-01-16T22:09:51.397Z,57.10
2019-01-16T22:13:03.787Z,56.80
2019-01-16T22:16:12.914Z,56.70
2019-01-16T22:19:35.776Z,56.80
2019-01-16T22:22:51.421Z,56.80
2019-01-16T22:26:13.866Z,57.40
2019-01-16T22:29:26.074Z,57.20
2019-01-16T22:32:47.494Z,57.50
2019-01-16T22:35:53.950Z,58.20
2019-01-16T22:39:00.442Z,57.50
2019-01-16T22:42:18.472Z,58.00
2019-01-16T22:45:27.902Z,57.60
2019-01-16T22:48:34.367Z,57.80
2019-01-16T22:51:57.110Z,57.80
2019-01-16T22:55:18.330Z,57.60
2019-01-16T22:58:24.860Z,57.10
2019-01-16T23:01:31.412Z,58.20
2019-01-16T23:04:53.165Z,58.30
2019-01-16T23:08:02.208Z,58.70
2019-01-16T23:11:14.511Z,58.20
2019-01-16T23:14:21.056Z,58.00
2019-01-16T23:17:39.587Z,58.80
2019-01-16T23:21:02.094Z,58.30
2019-01-16T23:24:24.494Z,58.90
2019-01-16T23:27:30.980Z,58.70
2019-01-16T23:30:40.102Z,58.70
2019-01-16T23:33:55.663Z,58.90
2019-01-16T23:37:05.013Z,58.70
2019-01-16T23:40:26.676Z,59.00
2019-01-16T23:43:44.924Z,58.60
2019-01-16T23:47:07.590Z,58.70
2019-01-16T23:50:31.321Z,58.70
2019-01-16T23:53:37.814Z,58.70
2019-01-16T23:56:59.141Z,58.70
